createdAt,value
2023-01-30T00:01:15.767Z,100228.09
2023-01-30T00:03:42.367Z,100233.31
2023-01-30T00:06:09.015Z,100226.72
2023-01-30T00:08:35.707Z,100231.56
2023-01-30T00:11:07.583Z,100233.50
2023-01-30T00:13:35.101Z,100232.13
2023-01-30T00:16:02.951Z,100212.94
2023-01-30T00:18:29.722Z,100223.44
2023-01-30T00:21:00.357Z,100224.41
2023-01-30T00:23:28.145Z,100220.78
2023-01-30T00:25:55.822Z,100226.84
2023-01-30T00:28:22.981Z,100218.31
2023-01-30T00:30:50.675Z,100207.50
2023-01-30T00:33:17.924Z,100210.69
2023-01-30T00:35:49.098Z,100204.88
2023-01-30T00:38:16.760Z,100210.25
2023-01-30T00:40:43.695Z,100207.94
2023-01-30T00:43:34.223Z,100205.44
2023-01-30T00:46:21.599Z,100210.16
2023-01-30T00:48:48.341Z,100205.31
2023-01-30T00:51:15.030Z,100197.03
2023-01-30T00:53:41.730Z,100202.53
2023-01-30T00:56:08.451Z,100202.13
2023-01-30T00:58:35.099Z,100191.22
2023-01-30T01:01:01.740Z,100192.28
2023-01-30T01:03:28.427Z,100199.19
2023-01-30T01:05:55.109Z,100200.69
2023-01-30T01:08:22.758Z,100194.13
2023-01-30T01:10:49.603Z,100192.28
2023-01-30T01:13:16.339Z,100187.59
2023-01-30T01:15:43.154Z,100176.44
2023-01-30T01:18:09.881Z,100188.59
2023-01-30T01:20:36.551Z,100178.88
2023-01-30T01:23:03.577Z,100191.19
2023-01-30T01:25:30.339Z,100169.44
2023-01-30T01:27:57.057Z,100189.28
2023-01-30T01:30:23.795Z,100180.44
2023-01-30T01:32:50.540Z,100173.44
2023-01-30T01:35:17.531Z,100166.97
2023-01-30T01:37:44.406Z,100166.31
2023-01-30T01:40:36.829Z,100112.16
2023-01-30T01:43:15.955Z,100165.03
2023-01-30T01:45:43.802Z,100162.13
2023-01-30T01:48:19.357Z,100161.72
2023-01-30T01:50:54.546Z,100145.19
2023-01-30T01:53:26.089Z,100153.47
2023-01-30T01:55:57.045Z,100149.72
2023-01-30T01:58:29.824Z,100146.25
2023-01-30T02:00:59.197Z,100143.88
2023-01-30T02:03:29.185Z,100138.13
2023-01-30T02:06:00.304Z,100134.09
2023-01-30T02:08:29.441Z,100125.13
2023-01-30T02:11:10.947Z,100130.09
2023-01-30T02:13:38.279Z,100130.53
2023-01-30T02:16:07.555Z,100126.97
2023-01-30T02:18:37.094Z,100126.69
2023-01-30T02:21:39.188Z,100121.00
2023-01-30T02:24:05.825Z,100119.91
2023-01-30T02:26:54.188Z,100121.31
2023-01-30T02:29:50.360Z,100121.16
2023-01-30T02:32:23.084Z,100120.31
2023-01-30T02:35:05.590Z,100110.94
2023-01-30T02:37:41.139Z,100114.38
2023-01-30T02:40:42.371Z,100113.81
2023-01-30T02:43:17.062Z,100120.97
2023-01-30T02:45:56.774Z,100109.63
2023-01-30T02:48:33.109Z,100120.28
2023-01-30T02:51:05.886Z,100127.84
2023-01-30T02:53:34.091Z,100118.66
2023-01-30T02:56:01.152Z,100118.09
2023-01-30T02:58:33.192Z,100122.34
2023-01-30T03:01:30.834Z,100117.94
2023-01-30T03:04:37.948Z,100116.25
2023-01-30T03:07:32.554Z,100115.84
2023-01-30T03:10:34.156Z,100116.50
2023-01-30T03:13:28.531Z,100110.72
2023-01-30T03:16:28.377Z,100102.44
2023-01-30T03:18:55.279Z,100102.41
2023-01-30T03:21:21.918Z,100103.97
2023-01-30T03:23:48.747Z,100096.31
2023-01-30T03:26:20.878Z,100092.63
2023-01-30T03:28:50.047Z,100095.56
2023-01-30T03:31:16.871Z,100072.09
2023-01-30T03:33:43.566Z,100098.00
2023-01-30T03:36:11.109Z,100065.72
2023-01-30T03:38:38.232Z,100092.34
2023-01-30T03:41:05.850Z,100075.09
2023-01-30T03:43:32.597Z,100088.59
2023-01-30T03:45:59.261Z,100092.16
2023-01-30T03:48:25.984Z,100090.25
2023-01-30T03:50:52.659Z,100093.75
2023-01-30T03:53:19.421Z,100086.13
2023-01-30T03:55:46.182Z,100080.19
2023-01-30T03:58:12.880Z,100076.78
2023-01-30T04:00:39.653Z,100060.66
2023-01-30T04:03:06.349Z,100080.25
2023-01-30T04:05:33.172Z,100067.28
2023-01-30T04:07:59.953Z,100052.53
2023-01-30T04:10:27.580Z,100057.91
2023-01-30T04:12:54.693Z,100059.28
2023-01-30T04:15:21.421Z,100052.81
2023-01-30T04:17:48.142Z,100036.56
2023-01-30T04:20:15.301Z,100051.59
2023-01-30T04:22:42.110Z,100039.41
2023-01-30T04:25:09.335Z,100043.00
2023-01-30T04:27:36.137Z,100051.88
2023-01-30T04:30:03.324Z,100055.06
2023-01-30T04:32:30.175Z,100057.53
2023-01-30T04:34:56.909Z,100050.34
2023-01-30T04:37:23.771Z,100054.31
2023-01-30T04:39:50.487Z,100054.44
2023-01-30T04:42:17.256Z,100036.94
2023-01-30T04:44:43.972Z,100042.91
2023-01-30T04:47:10.821Z,100060.66
2023-01-30T04:49:37.928Z,100047.03
2023-01-30T04:52:05.214Z,100053.25
2023-01-30T04:54:32.073Z,100047.31
2023-01-30T04:56:58.847Z,100051.31
2023-01-30T04:59:25.820Z,100056.03
2023-01-30T05:01:52.762Z,100029.69
2023-01-30T05:04:20.245Z,100050.66
2023-01-30T05:06:46.985Z,100036.84
2023-01-30T05:09:13.585Z,100041.81
2023-01-30T05:11:40.282Z,100045.94
2023-01-30T05:14:06.950Z,100046.03
2023-01-30T05:16:33.667Z,100046.09
2023-01-30T05:19:00.564Z,100041.41
2023-01-30T05:21:28.762Z,100039.50
2023-01-30T05:23:57.027Z,100038.78
2023-01-30T05:26:24.769Z,100045.66
2023-01-30T05:28:56.582Z,100045.63
2023-01-30T05:31:23.904Z,100006.94
2023-01-30T05:33:52.474Z,100048.03
2023-01-30T05:36:20.758Z,100045.13
2023-01-30T05:38:47.491Z,100053.13
2023-01-30T05:41:16.337Z,100049.81
2023-01-30T05:43:43.323Z,100048.25
2023-01-30T05:46:12.777Z,100052.00
2023-01-30T05:48:41.113Z,100047.44
2023-01-30T05:51:16.873Z,100056.13
2023-01-30T05:53:43.499Z,100063.19
2023-01-30T05:56:10.253Z,100064.03
2023-01-30T05:58:36.950Z,100049.38
2023-01-30T06:01:06.246Z,100061.25
2023-01-30T06:03:32.930Z,100061.84
2023-01-30T06:06:01.745Z,100054.25
2023-01-30T06:08:28.708Z,100058.69
2023-01-30T06:10:55.406Z,100060.47
2023-01-30T06:13:22.105Z,100036.88
2023-01-30T06:15:48.850Z,100047.34
2023-01-30T06:18:15.560Z,100057.00
2023-01-30T06:20:48.219Z,100060.34
2023-01-30T06:23:15.193Z,100052.19
2023-01-30T06:25:46.070Z,100065.03
2023-01-30T06:28:13.535Z,100061.72
2023-01-30T06:30:40.502Z,100060.16
2023-01-30T06:33:08.023Z,100046.91
2023-01-30T06:35:35.092Z,100061.78
2023-01-30T06:38:01.786Z,100065.66
2023-01-30T06:40:28.439Z,100065.41
2023-01-30T06:42:55.150Z,100050.16
2023-01-30T06:45:21.877Z,100053.84
2023-01-30T06:47:53.801Z,100058.13
2023-01-30T06:50:22.979Z,100056.47
2023-01-30T06:52:51.307Z,100060.59
2023-01-30T06:55:20.640Z,100053.84
2023-01-30T07:00:43.345Z,100037.84
2023-01-30T07:03:14.980Z,100056.16
2023-01-30T07:05:43.396Z,100057.25
2023-01-30T07:08:10.448Z,100047.06
2023-01-30T07:10:37.557Z,100039.34
2023-01-30T07:13:04.953Z,100050.50
2023-01-30T07:15:32.441Z,100046.81
2023-01-30T07:17:59.567Z,100042.44
2023-01-30T07:20:26.515Z,100035.94
2023-01-30T07:22:55.099Z,100042.97
2023-01-30T07:25:24.336Z,100046.31
2023-01-30T07:27:56.342Z,100047.78
2023-01-30T07:30:23.037Z,99986.59
2023-01-30T07:32:54.710Z,100040.38
2023-01-30T07:35:22.884Z,100041.63
2023-01-30T07:37:50.551Z,100030.84
2023-01-30T07:40:18.204Z,100031.28
2023-01-30T07:42:45.203Z,100034.56
2023-01-30T07:45:11.955Z,100027.81
2023-01-30T07:47:38.677Z,100036.53
2023-01-30T07:50:05.952Z,100034.84
2023-01-30T07:52:32.880Z,100043.50
2023-01-30T07:55:01.475Z,100031.34
2023-01-30T07:57:28.436Z,100031.25
2023-01-30T07:59:55.092Z,100029.56
2023-01-30T08:02:21.869Z,100028.00
2023-01-30T08:04:48.551Z,100028.19
2023-01-30T08:07:15.259Z,100027.94
2023-01-30T08:09:42.168Z,100033.47
2023-01-30T08:12:08.774Z,100017.16
2023-01-30T08:14:35.454Z,100010.97
2023-01-30T08:17:02.129Z,100024.72
2023-01-30T08:19:28.802Z,100014.28
2023-01-30T08:21:55.535Z,99998.03
2023-01-30T08:24:22.234Z,100016.94
2023-01-30T08:26:49.580Z,100007.84
2023-01-30T08:29:17.316Z,100005.16
2023-01-30T08:31:44.169Z,100018.34
2023-01-30T08:34:11.004Z,100022.22
2023-01-30T08:36:37.711Z,100015.47
2023-01-30T08:39:05.215Z,100009.13
2023-01-30T08:41:31.951Z,100013.56
2023-01-30T08:43:58.645Z,100014.16
2023-01-30T08:46:25.442Z,100002.81
2023-01-30T08:48:52.140Z,100015.66
2023-01-30T08:51:19.022Z,100018.13
2023-01-30T08:53:45.805Z,100021.69
2023-01-30T08:56:12.545Z,100026.41
2023-01-30T08:58:39.226Z,100010.25
2023-01-30T09:01:07.130Z,100012.16
2023-01-30T09:03:34.313Z,100018.22
2023-01-30T09:06:01.314Z,100012.66
2023-01-30T09:08:28.412Z,100016.19
2023-01-30T09:10:59.731Z,100009.19
2023-01-30T09:13:26.739Z,100012.72
2023-01-30T09:15:54.156Z,100006.84
2023-01-30T09:18:21.044Z,100002.88
2023-01-30T09:20:47.843Z,100002.38
2023-01-30T09:23:14.580Z,100004.84
2023-01-30T09:25:41.724Z,99989.84
2023-01-30T09:28:08.397Z,99992.38
2023-01-30T09:30:35.250Z,99994.06
2023-01-30T09:33:02.377Z,99990.97
2023-01-30T09:35:29.125Z,99983.06
2023-01-30T09:37:55.826Z,99964.97
2023-01-30T09:40:28.966Z,99953.84
2023-01-30T09:43:04.707Z,99966.13
2023-01-30T09:45:44.555Z,99959.72
2023-01-30T09:48:18.382Z,99957.00
2023-01-30T09:51:01.769Z,99953.28
2023-01-30T09:53:43.059Z,99945.00
2023-01-30T09:56:09.876Z,99940.59
2023-01-30T09:58:56.823Z,99937.44
2023-01-30T10:01:53.872Z,99940.41
2023-01-30T10:04:31.941Z,99939.34
2023-01-30T10:07:25.534Z,99930.78
2023-01-30T10:10:04.230Z,99923.50
2023-01-30T10:12:50.255Z,99910.41
2023-01-30T10:15:31.668Z,99916.69
2023-01-30T10:18:06.005Z,99912.69
2023-01-30T10:21:00.749Z,99903.28
2023-01-30T10:23:30.173Z,99908.44
2023-01-30T10:26:01.802Z,99903.13
2023-01-30T10:28:32.856Z,99906.66
2023-01-30T10:31:04.856Z,99888.63
2023-01-30T10:33:58.031Z,99896.56
2023-01-30T10:36:50.777Z,99892.47
2023-01-30T10:39:54.846Z,99891.25
2023-01-30T10:42:53.217Z,99877.72
2023-01-30T10:45:26.757Z,99878.00
2023-01-30T10:48:11.186Z,99858.81
2023-01-30T10:51:03.336Z,99860.75
2023-01-30T10:54:05.324Z,99855.72
2023-01-30T10:57:11.427Z,99862.31
2023-01-30T10:59:56.248Z,99849.63
2023-01-30T11:02:45.821Z,99850.63
2023-01-30T11:05:21.339Z,99838.59
2023-01-30T11:07:49.339Z,99829.41
2023-01-30T11:10:21.241Z,99832.59
2023-01-30T11:12:52.629Z,99826.25
2023-01-30T11:15:19.534Z,99818.94
2023-01-30T11:17:46.545Z,99814.34
2023-01-30T11:20:23.214Z,99805.78
2023-01-30T11:23:12.855Z,99803.56
2023-01-30T11:26:05.536Z,99796.19
2023-01-30T11:28:43.934Z,99795.38
2023-01-30T11:31:31.482Z,99780.94
2023-01-30T11:34:17.670Z,99765.22
2023-01-30T11:36:47.233Z,99758.66
2023-01-30T11:39:14.254Z,99774.28
2023-01-30T11:41:54.065Z,99752.22
2023-01-30T11:44:26.921Z,99767.88
2023-01-30T11:46:54.233Z,99753.91
2023-01-30T11:49:48.981Z,99751.59
2023-01-30T11:52:10.102Z,99738.28
2023-01-30T11:54:45.289Z,99748.50
2023-01-30T11:57:15.042Z,99732.03
2023-01-30T11:59:55.598Z,99743.72
2023-01-30T12:02:38.333Z,99744.69
2023-01-30T12:05:32.999Z,99730.91
2023-01-30T12:08:39.418Z,99721.84
2023-01-30T12:11:44.817Z,99724.31
2023-01-30T12:14:26.772Z,99716.91
2023-01-30T12:17:14.902Z,99711.31
2023-01-30T12:19:41.655Z,99718.53
2023-01-30T12:22:29.257Z,99710.84
2023-01-30T12:25:32.818Z,99713.63
2023-01-30T12:28:22.385Z,99704.25
2023-01-30T12:30:55.155Z,99702.94
2023-01-30T12:33:23.054Z,99702.09
2023-01-30T12:36:21.898Z,99694.84
2023-01-30T12:39:25.914Z,99692.41
2023-01-30T12:42:01.525Z,99686.63
2023-01-30T12:44:46.873Z,99685.94
2023-01-30T12:47:32.002Z,99683.66
2023-01-30T12:50:11.981Z,99685.81
2023-01-30T12:52:59.205Z,99681.38
2023-01-30T12:55:44.669Z,99671.16
2023-01-30T12:58:34.270Z,99655.53
2023-01-30T13:01:06.049Z,99661.06
2023-01-30T13:03:39.704Z,99647.41
2023-01-30T13:06:29.339Z,99664.78
2023-01-30T13:09:13.275Z,99661.13
2023-01-30T13:12:11.009Z,99657.16
2023-01-30T13:14:52.338Z,99659.19
2023-01-30T13:17:25.028Z,99660.34
2023-01-30T13:20:13.560Z,99656.38
2023-01-30T13:22:56.913Z,99652.75
2023-01-30T13:25:42.441Z,99650.69
2023-01-30T13:28:17.157Z,99650.31
2023-01-30T13:30:45.815Z,99643.47
2023-01-30T13:33:24.461Z,99642.44
2023-01-30T13:36:31.535Z,99578.22
2023-01-30T13:39:10.807Z,99647.00
2023-01-30T13:41:42.667Z,99640.84
2023-01-30T13:44:31.091Z,99640.34
2023-01-30T13:47:03.517Z,99621.31
2023-01-30T13:49:43.464Z,99629.56
2023-01-30T13:52:35.032Z,99628.28
2023-01-30T13:55:11.438Z,99609.84
2023-01-30T13:58:05.956Z,99618.06
2023-01-30T14:00:34.452Z,99621.38
2023-01-30T14:03:03.928Z,99621.66
2023-01-30T14:05:52.871Z,99615.13
2023-01-30T14:08:23.360Z,99605.41
2023-01-30T14:10:50.507Z,99597.84
2023-01-30T14:13:18.794Z,99606.75
2023-01-30T14:15:58.882Z,99608.22
2023-01-30T14:18:33.936Z,99608.69
2023-01-30T14:21:16.851Z,99601.78
2023-01-30T14:23:57.355Z,99590.91
2023-01-30T14:26:48.894Z,99592.03
2023-01-30T14:29:37.467Z,99590.88
2023-01-30T14:32:13.871Z,99587.69
2023-01-30T14:34:46.149Z,99575.00
2023-01-30T14:37:46.940Z,99576.03
2023-01-30T14:40:22.777Z,99579.31
2023-01-30T14:43:19.525Z,99575.66
2023-01-30T14:46:01.230Z,99550.81
2023-01-30T14:48:39.843Z,99569.38
2023-01-30T14:51:45.541Z,99571.00
2023-01-30T14:54:12.646Z,99563.94
2023-01-30T14:56:48.384Z,99559.63
2023-01-30T14:59:21.167Z,99564.22
2023-01-30T15:02:14.913Z,99559.91
2023-01-30T15:05:03.712Z,99561.38
2023-01-30T15:07:42.019Z,99556.13
2023-01-30T15:10:17.971Z,99552.03
2023-01-30T15:13:20.461Z,99551.38
2023-01-30T15:16:08.353Z,99549.31
2023-01-30T15:19:13.425Z,99547.06
2023-01-30T15:21:48.816Z,99541.69
2023-01-30T15:24:37.119Z,99559.59
2023-01-30T15:27:39.370Z,99551.75
2023-01-30T15:30:18.372Z,99546.69
2023-01-30T15:32:45.999Z,99549.13
2023-01-30T15:35:18.941Z,99544.50
2023-01-30T15:37:57.265Z,99551.56
2023-01-30T15:40:26.423Z,99532.34
2023-01-30T15:43:36.213Z,99539.53
2023-01-30T15:46:10.797Z,99545.16
2023-01-30T15:48:56.806Z,99546.31
2023-01-30T15:51:29.559Z,99542.72
2023-01-30T15:53:58.366Z,99538.88
2023-01-30T15:56:28.963Z,99539.88
2023-01-30T15:58:59.806Z,99548.13
2023-01-30T16:01:26.904Z,99543.84
2023-01-30T16:03:54.168Z,99558.91
2023-01-30T16:06:32.843Z,99555.34
2023-01-30T16:09:18.323Z,99548.31
2023-01-30T16:11:45.119Z,99550.94
2023-01-30T16:14:22.784Z,99547.78
2023-01-30T16:17:03.494Z,99534.72
2023-01-30T16:19:37.510Z,99540.09
2023-01-30T16:22:19.171Z,99537.97
2023-01-30T16:24:51.042Z,99540.38
2023-01-30T16:27:32.266Z,99540.22
2023-01-30T16:30:07.415Z,99542.50
2023-01-30T16:32:35.907Z,99536.59
2023-01-30T16:35:30.948Z,99536.94
2023-01-30T16:38:00.289Z,99543.00
2023-01-30T16:40:42.616Z,99534.16
2023-01-30T16:43:22.905Z,99538.91
2023-01-30T16:45:52.305Z,99534.47
2023-01-30T16:48:23.384Z,99532.34
2023-01-30T16:50:59.752Z,99526.75
2023-01-30T16:53:32.589Z,99526.88
2023-01-30T16:56:03.878Z,99521.13
2023-01-30T16:58:33.691Z,99519.50
2023-01-30T17:01:03.102Z,99517.03
2023-01-30T17:03:36.909Z,99510.16
2023-01-30T17:06:12.587Z,99510.00
2023-01-30T17:08:57.811Z,99515.13
2023-01-30T17:11:41.639Z,99510.03
2023-01-30T17:14:24.437Z,99514.00
2023-01-30T17:17:08.296Z,99501.84
2023-01-30T17:19:36.152Z,99504.47
2023-01-30T17:22:08.665Z,99494.63
2023-01-30T17:24:36.171Z,99504.00
2023-01-30T17:27:04.253Z,99500.72
2023-01-30T17:29:42.305Z,99500.88
2023-01-30T17:32:15.382Z,99492.31
2023-01-30T17:34:42.455Z,99491.53
2023-01-30T17:37:15.933Z,99482.66
2023-01-30T17:39:42.665Z,99485.44
2023-01-30T17:42:11.006Z,99484.81
2023-01-30T17:44:39.153Z,99418.28
2023-01-30T17:47:06.501Z,99463.28
2023-01-30T17:49:33.224Z,99465.56
2023-01-30T17:52:00.447Z,99454.06
2023-01-30T17:54:30.151Z,99469.34
2023-01-30T17:57:09.904Z,99463.28
2023-01-30T17:59:37.102Z,99470.03
2023-01-30T18:02:03.836Z,99465.06
2023-01-30T18:04:32.147Z,99457.66
2023-01-30T18:07:09.706Z,99461.00
2023-01-30T18:09:36.408Z,99462.75
2023-01-30T18:12:03.833Z,99457.34
2023-01-30T18:14:30.541Z,99462.09
2023-01-30T18:17:00.786Z,99425.44
2023-01-30T18:19:29.150Z,99449.38
2023-01-30T18:21:56.719Z,99432.31
2023-01-30T18:24:24.329Z,99445.63
2023-01-30T18:26:51.048Z,99439.00
2023-01-30T18:29:17.923Z,99439.50
2023-01-30T18:31:44.753Z,99445.09
2023-01-30T18:34:11.792Z,99446.38
2023-01-30T18:36:40.809Z,99440.78
2023-01-30T18:39:07.732Z,99431.25
2023-01-30T18:41:37.586Z,99446.03
2023-01-30T18:44:06.508Z,99440.44
2023-01-30T18:46:34.519Z,99444.19
2023-01-30T18:49:01.442Z,99443.63
2023-01-30T18:51:33.520Z,99439.81
2023-01-30T18:54:01.751Z,99436.22
2023-01-30T18:56:31.784Z,99434.13
2023-01-30T18:59:02.566Z,99433.97
2023-01-30T19:01:32.822Z,99428.97
2023-01-30T19:04:02.624Z,99427.69
2023-01-30T19:06:30.757Z,99414.69
2023-01-30T19:08:58.384Z,99420.25
2023-01-30T19:11:43.608Z,99423.72
2023-01-30T19:14:11.991Z,99416.38
2023-01-30T19:16:39.556Z,99422.44
2023-01-30T19:19:09.393Z,99419.09
2023-01-30T19:21:37.103Z,99420.38
2023-01-30T19:24:06.718Z,99414.31
2023-01-30T19:26:34.491Z,99406.53
2023-01-30T19:29:01.314Z,99413.75
2023-01-30T19:31:28.638Z,99419.44
2023-01-30T19:34:04.781Z,99416.81
2023-01-30T19:36:33.522Z,99419.09
2023-01-30T19:39:02.745Z,99415.25
2023-01-30T19:41:33.021Z,99404.28
2023-01-30T19:44:02.261Z,99415.28
2023-01-30T19:46:29.758Z,99364.38
2023-01-30T19:48:57.939Z,99409.22
2023-01-30T19:51:27.723Z,99411.56
2023-01-30T19:53:56.867Z,99389.06
2023-01-30T19:56:25.445Z,99395.09
2023-01-30T19:58:55.027Z,99405.06
2023-01-30T20:01:23.478Z,99405.06
2023-01-30T20:03:50.448Z,99393.47
2023-01-30T20:06:20.891Z,99386.09
2023-01-30T20:08:50.317Z,99384.31
2023-01-30T20:11:18.733Z,99388.78
2023-01-30T20:13:47.037Z,99389.94
2023-01-30T20:16:19.576Z,99384.78
2023-01-30T20:18:48.303Z,99388.97
2023-01-30T20:21:20.610Z,99390.59
2023-01-30T20:23:48.657Z,99373.00
2023-01-30T20:26:21.765Z,99390.00
2023-01-30T20:28:49.460Z,99386.34
2023-01-30T20:31:19.525Z,99380.25
2023-01-30T20:33:46.705Z,99374.03
2023-01-30T20:36:15.871Z,99376.84
2023-01-30T20:38:43.765Z,99378.00
2023-01-30T20:41:22.773Z,99375.44
2023-01-30T20:43:51.669Z,99376.88
2023-01-30T20:46:24.870Z,99377.00
2023-01-30T20:48:54.506Z,99381.03
2023-01-30T20:51:24.881Z,99379.44
2023-01-30T20:53:57.208Z,99375.13
2023-01-30T20:56:25.592Z,99347.72
2023-01-30T20:58:52.629Z,99370.41
2023-01-30T21:01:21.883Z,99372.81
2023-01-30T21:03:50.962Z,99362.38
2023-01-30T21:06:41.418Z,99366.94
2023-01-30T21:09:18.810Z,99376.97
2023-01-30T21:11:46.292Z,99363.63
2023-01-30T21:14:13.112Z,99366.06
2023-01-30T21:16:39.998Z,99316.41
2023-01-30T21:19:10.071Z,99363.00
2023-01-30T21:21:43.613Z,99354.19
2023-01-30T21:24:14.649Z,99349.19
2023-01-30T21:26:46.331Z,99363.19
2023-01-30T21:29:18.850Z,99353.66
2023-01-30T21:31:46.333Z,99344.31
2023-01-30T21:34:13.688Z,99352.88
2023-01-30T21:36:41.195Z,99343.25
2023-01-30T21:39:27.929Z,99338.97
2023-01-30T21:42:12.862Z,99339.69
2023-01-30T21:44:40.891Z,99341.91
2023-01-30T21:47:08.549Z,99342.28
2023-01-30T21:49:36.755Z,99340.44
2023-01-30T21:52:03.848Z,99333.00
2023-01-30T21:54:30.472Z,99332.03
2023-01-30T21:56:57.184Z,99322.31
2023-01-30T21:59:23.854Z,99326.50
2023-01-30T22:01:51.024Z,99324.50
2023-01-30T22:04:17.899Z,99321.34
2023-01-30T22:06:45.951Z,99327.06
2023-01-30T22:09:16.312Z,99323.97
2023-01-30T22:11:43.601Z,99329.31
2023-01-30T22:14:13.529Z,99325.91
2023-01-30T22:16:40.916Z,99328.84
2023-01-30T22:19:07.990Z,99336.50
2023-01-30T22:21:37.585Z,99334.34
2023-01-30T22:24:05.652Z,99339.34
2023-01-30T22:26:32.470Z,99334.56
2023-01-30T22:29:00.573Z,99324.66
2023-01-30T22:31:30.407Z,99321.16
2023-01-30T22:33:57.461Z,99305.38
2023-01-30T22:36:29.132Z,99310.16
2023-01-30T22:38:56.311Z,99305.31
2023-01-30T22:41:25.920Z,99299.41
2023-01-30T22:43:55.694Z,99298.00
2023-01-30T22:46:27.730Z,99295.59
2023-01-30T22:48:54.898Z,99300.44
2023-01-30T22:51:27.219Z,99288.78
2023-01-30T22:53:56.996Z,99292.09
2023-01-30T22:56:26.647Z,99292.38
2023-01-30T22:58:53.883Z,99295.28
2023-01-30T23:01:29.471Z,99291.41
2023-01-30T23:03:58.795Z,99292.03
2023-01-30T23:06:26.630Z,99285.91
2023-01-30T23:08:54.867Z,99283.34
2023-01-30T23:11:34.352Z,99297.41
2023-01-30T23:14:10.493Z,99300.69
2023-01-30T23:16:39.108Z,99309.34
2023-01-30T23:19:07.803Z,99295.22
2023-01-30T23:21:45.511Z,99303.16
2023-01-30T23:24:14.422Z,99304.84
2023-01-30T23:26:46.932Z,99295.06
2023-01-30T23:29:17.045Z,99283.72
2023-01-30T23:31:45.033Z,99284.19
2023-01-30T23:34:17.448Z,99290.91
2023-01-30T23:36:44.952Z,99289.41
2023-01-30T23:39:13.513Z,99288.66
2023-01-30T23:41:41.742Z,99287.84
2023-01-30T23:44:09.104Z,99269.41
2023-01-30T23:46:41.252Z,99289.53
2023-01-30T23:49:10.792Z,99288.22
2023-01-30T23:51:40.023Z,99290.75
2023-01-30T23:54:07.649Z,99267.75
2023-01-30T23:56:37.718Z,99284.25
2023-01-30T23:59:05.574Z,99271.63
